ADDS METAR Data INFO
IDs: Format: Raw Decoded Include TAF

Data at: 2033 UTC 22 Feb 2018

KITH 221956Z 33004KT 1SM R32/5500VP6000FT -SN BR OVC003 01/00 A3063 RMK AO2 SLP385 P0004 T00110000
KITH 221856Z 35004KT 3/4SM R32/4000V5500FT -SN BR BKN007 OVC012 01/00 A3060 RMK AO2 SLP375 P0008 T00110000
KITH 221756Z 32004KT 1/2SM R32/3000V3500FT SN FG OVC007 01/M01 A3060 RMK AO2 SLP376 P0005 60009 T00061006 10011 21006 55009
KITH 221656Z 00000KT 1/4SM R32/6000FT +SN FG OVC007 01/M01 A3060 RMK AO2 SLP375 P0003 T00111006
KITH 221556Z 07003KT 1/4SM R32/6000FT SN FG OVC010 01/M01 A3062 RMK AO2 SLP382 P0000 T00061011
KITH 221519Z 00000KT 1/4SM R32/4000V4500FT -SN FG OVC010 01/M01 A3063 RMK AO2 P0000
KITH 221508Z 00000KT 1/2SM R32/2400V4000FT SN FG OVC010 00/M01 A3063 RMK AO2 P0000
KITH 221456Z 00000KT 1/4SM R32/2600V3000FT SN FG OVC008 00/M01 A3063 RMK AO2 CIG 005V010 SLP384 P0000 60001 T00001011 50012
KITH 221452Z 00000KT 1/4SM R32/2400V3000FT SN FZFG OVC008 M01/M01 A3063 RMK AO2 CIG 005V011 P0000
KITH 221447Z 00000KT 1/2SM R32/2400V2800FT SN FZFG OVC010 M01/M01 A3062 RMK AO2 P0000
KITH 221417Z 00000KT 1/2SM R32/3000V5500FT SN FZFG BKN005 OVC011 M01/M02 A3064 RMK AO2 P0000
KITH 221356Z 27003KT 1SM R32/4000V4500FT -SN BR BKN005 OVC011 M01/M02 A3064 RMK AO2 UPE1258SNB04 CIG 003V007 SLP390 P0001 T10061017
KITH 221326Z 27003KT 2SM R32/5000VP6000FT -SN BR BKN020 OVC046 M01/M02 A3063 RMK AO2 UPE1258SNB04 P0000
KITH 221256Z 00000KT 9SM UP BKN020 OVC046 M01/M02 A3062 RMK AO2 UPB56 SLP380 P0000 T10061022
KITH 221156Z 00000KT 10SM OVC010 M01/M02 A3059 RMK AO2 SLP372 70001 T10061022 10006 21011 53001
KITH 221130Z 34003KT 10SM OVC010 M01/M02 A3058 RMK AO2
KITH 221056Z AUTO 35005KT 10SM OVC010 M01/M03 A3059 RMK AO2 SLP369 T10061028
KITH 221016Z AUTO 31004KT 10SM BKN012 OVC023 M01/M03 A3059 RMK AO2
KITH 220956Z AUTO 31005KT 10SM FEW012 BKN023 OVC080 M01/M03 A3059 RMK AO2 SLP370 T10061028
KITH 220856Z AUTO 33007KT 10SM FEW023 OVC080 M01/M03 A3059 RMK AO2 SLP370 T10061033 58002
KITH 220834Z AUTO 34005KT 10SM FEW021 OVC080 M01/M03 A3059 RMK AO2
KITH 220756Z AUTO 32008KT 10SM OVC023 M01/M03 A3060 RMK AO2 SLP372 T10061033
KITH 220656Z AUTO 34006KT 10SM OVC023 00/M04 A3059 RMK AO2 SLP370 T00001044
KITH 220617Z AUTO 33006KT 10SM BKN023 OVC075 00/M05 A3059 RMK AO2
KITH 220556Z AUTO 34007KT 10SM FEW021 BKN075 OVC095 01/M04 A3060 RMK AO2 UPB0458E00RAB00E17SNB04E13 SLP369 P0000 60000 T00061039 10033 20006 51017
KITH 220456Z AUTO 34006KT 10SM FEW070 OVC100 01/M04 A3058 RMK AO2 SLP357 T00061039 402060006
KITH 220356Z AUTO 34006KT 10SM BKN110 01/M02 A3057 RMK AO2 SLP356 T00111022
KITH 212356Z 32008KT 10SM OVC046 03/01 A3051 RMK AO2 SLP337 60001 T00330011 10083 20033 53037
KITH 212256Z 32010KT 10SM BKN015 OVC047 03/02 A3046 RMK AO2 SLP321 T00330017
KITH 212156Z 33009KT 10SM BKN007 BKN017 04/03 A3042 RMK AO2 RAE54 SLP307 P0000 T00440028
KITH 212056Z 34006KT 6SM -RA BR SCT007 OVC024 04/03 A3040 RMK AO2 SLP298 P0000 60001 T00440033 51047
KITH 211956Z 35008G14KT 4SM -RA BR BKN007 OVC021 04/04 A3036 RMK AO2 SLP284 P0001 T00440039
KITH 211856Z 33012KT 10SM -RA OVC007 06/04 A3032 RMK AO2 RAB14 SLP272 P0000 T00560044
KITH 211837Z 33012G20KT 10SM -RA OVC007 07/05 A3031 RMK AO2 RAB14 PRESRR P0000
KITH 211756Z 33020G26KT 10SM SCT005 OVC011 09/07 A3025 RMK AO2 WSHFT 1646 RAB13E25 PRESRR SLP247 P0000 60000 T00890072 10206 20089 53035
KITH 211700Z 31017G26KT 10SM OVC048 18/11 A3018 RMK AO2 PK WND 32026/1658 WSHFT 1646 PRESRR
KITH 211656Z 28018G23KT 10SM OVC046 20/12 A3017 RMK AO2 SLP212 T02000122
KITH 211556Z 21010G18KT 10SM SCT070 20/12 A3015 RMK AO2 SLP207 T02000117
KITH 211456Z 19011G17KT 10SM SCT085 19/12 A3015 RMK AO2 SLP206 T01940117 58006
KITH 211356Z 19010KT 10SM BKN085 18/11 A3016 RMK AO2 SLP211 T01780111
KITH 211256Z 18005KT 10SM SCT080 15/11 A3017 RMK AO2 SLP214 T01500111